Time;durP1;ratioP1;P1;durP2;ratioP2;P2;SDS_P1;SDS_P2;PMS_P1;PMS_P2;Temp;Humidity;BMP_temperature;BMP_pressure;BME280_temperature;BME280_humidity;BME280_pressure;Samples;Min_cycle;Max_cycle;Signal;HPM_P1;HPM_P2
2024/03/06 00:08:34;;;;;;;47.70;34.10;;;;;;;-0.56;100.00;99758.95;449112;1238;139020;-54
2024/03/06 00:18:37;;;;;;;46.40;33.90;;;;;;;-0.35;100.00;99762.92;448797;1237;139013;-51
2024/03/06 00:28:41;;;;;;;53.20;36.60;;;;;;;-0.15;100.00;99769.48;449664;1233;140159;-47
2024/03/06 00:38:44;;;;;;;43.80;31.40;;;;;;;0.04;100.00;99777.41;448783;1238;140108;-47
2024/03/06 00:48:48;;;;;;;45.40;32.20;;;;;;;0.19;100.00;99787.11;448303;1240;139072;-48
2024/03/06 00:58:51;;;;;;;42.10;28.60;;;;;;;0.35;100.00;99786.48;448994;1238;139872;-46
2024/03/06 01:08:54;;;;;;;39.20;27.70;;;;;;;0.50;100.00;99783.98;448842;1238;139015;-59
2024/03/06 01:18:58;;;;;;;39.80;28.10;;;;;;;0.64;100.00;99781.11;449113;1239;139350;-60
2024/03/06 01:29:03;;;;;;;40.90;29.80;;;;;;;0.80;100.00;99784.92;448527;1238;139604;-59
2024/03/06 01:39:07;;;;;;;41.40;29.90;;;;;;;0.96;100.00;99787.17;448869;1239;139310;-51
2024/03/06 01:49:11;;;;;;;41.00;31.40;;;;;;;1.10;100.00;99791.02;448819;1240;139576;-54
2024/03/06 01:59:15;;;;;;;35.00;27.70;;;;;;;1.20;100.00;99797.70;448742;1238;139525;-58
2024/03/06 02:09:34;;;;;;;36.80;27.40;;;;;;;1.27;100.00;99798.75;448596;1238;142182;-60
2024/03/06 02:19:42;;;;;;;34.40;25.60;;;;;;;1.36;100.00;99798.91;448675;1239;139374;-59
2024/03/06 02:29:45;;;;;;;33.10;24.60;;;;;;;1.49;100.00;99796.89;449075;1238;139822;-59
2024/03/06 02:39:49;;;;;;;33.90;26.10;;;;;;;1.59;100.00;99797.17;448588;1235;139998;-60
2024/03/06 02:49:53;;;;;;;31.10;22.90;;;;;;;1.69;100.00;99796.92;448465;1238;139306;-59
2024/03/06 02:59:59;;;;;;;25.20;21.40;;;;;;;1.77;100.00;99791.38;448244;1238;139391;-59
2024/03/06 03:10:06;;;;;;;29.50;23.70;;;;;;;1.87;100.00;99800.81;449269;1238;139442;-58
2024/03/06 03:20:12;;;;;;;26.60;21.50;;;;;;;1.95;100.00;99801.64;448642;1238;139597;-48
2024/03/06 03:30:16;;;;;;;26.00;21.00;;;;;;;2.02;100.00;99804.92;448528;1238;139445;-46
2024/03/06 03:40:19;;;;;;;24.40;19.20;;;;;;;2.09;100.00;99803.90;448705;1235;139286;-59
2024/03/06 03:50:23;;;;;;;28.10;20.90;;;;;;;2.16;100.00;99804.92;448490;1238;138906;-58
2024/03/06 04:00:29;;;;;;;24.50;19.90;;;;;;;2.22;100.00;99805.13;450450;1238;139007;-59
2024/03/06 04:10:34;;;;;;;22.60;18.40;;;;;;;2.28;100.00;99805.30;449534;1235;138826;-53
2024/03/06 04:20:38;;;;;;;25.20;19.20;;;;;;;2.34;100.00;99802.55;449135;1238;138807;-52
2024/03/06 04:30:41;;;;;;;23.10;18.50;;;;;;;2.39;100.00;99803.98;448598;1238;138592;-53
2024/03/06 04:40:45;;;;;;;22.10;16.90;;;;;;;2.42;100.00;99814.79;448626;1238;139217;-52
2024/03/06 04:50:48;;;;;;;21.10;17.30;;;;;;;2.41;100.00;99818.44;449422;1235;138932;-53
2024/03/06 05:00:51;;;;;;;21.80;17.60;;;;;;;2.41;100.00;99815.67;448705;1238;139398;-54
2024/03/06 05:10:55;;;;;;;24.50;19.00;;;;;;;2.43;100.00;99821.34;448894;1235;139185;-53
2024/03/06 05:21:16;;;;;;;25.00;19.40;;;;;;;2.46;100.00;99828.52;448563;1238;139050;-51
2024/03/06 05:31:37;;;;;;;23.30;17.80;;;;;;;2.48;100.00;99830.88;448702;1238;139258;-53
2024/03/06 05:42:03;;;;;;;21.10;17.00;;;;;;;2.52;100.00;99821.44;448432;1238;139334;-54
2024/03/06 05:52:24;;;;;;;23.70;18.60;;;;;;;2.55;100.00;99829.48;448606;1235;138844;-59
2024/03/06 06:02:46;;;;;;;26.00;20.60;;;;;;;2.57;100.00;99830.46;448758;1236;139423;-57
2024/03/06 06:12:50;;;;;;;27.40;20.00;;;;;;;2.58;100.00;99836.66;448606;1238;139460;-59
2024/03/06 06:22:53;;;;;;;35.30;23.10;;;;;;;2.59;100.00;99846.64;448702;1238;139381;-58
2024/03/06 06:32:59;;;;;;;29.80;21.80;;;;;;;2.61;100.00;99852.34;449460;1235;137727;-58
2024/03/06 06:43:05;;;;;;;29.60;22.00;;;;;;;2.64;100.00;99854.80;445431;1237;5216219;-53
2024/03/06 06:53:08;;;;;;;27.30;22.20;;;;;;;2.68;100.00;99861.11;448614;1238;139434;-54
2024/03/06 07:03:11;;;;;;;30.20;23.30;;;;;;;2.71;100.00;99863.97;448627;1238;139320;-52
2024/03/06 07:13:15;;;;;;;35.20;24.00;;;;;;;2.75;100.00;99866.44;448811;1235;140055;-46
2024/03/06 07:23:20;;;;;;;40.40;24.40;;;;;;;2.84;100.00;99869.33;448910;1235;139328;-74
2024/03/06 07:33:24;;;;;;;54.00;28.10;;;;;;;2.91;100.00;99869.14;449114;1237;139385;-69
2024/03/06 07:43:27;;;;;;;43.90;26.90;;;;;;;3.01;100.00;99872.83;448898;1238;139661;-60
2024/03/06 07:53:31;;;;;;;35.80;27.70;;;;;;;3.09;100.00;99886.25;449116;1235;140120;-61
2024/03/06 08:03:39;;;;;;;67.60;32.60;;;;;;;3.15;100.00;99885.41;449973;1236;138853;-64
2024/03/06 08:13:43;;;;;;;40.30;24.30;;;;;;;3.24;100.00;99893.81;449341;1237;138953;-58
2024/03/06 08:23:47;;;;;;;29.10;23.50;;;;;;;3.34;100.00;99901.66;449059;1237;139356;-65
2024/03/06 08:33:51;;;;;;;32.60;25.30;;;;;;;3.48;100.00;99900.89;449093;1235;138900;-65
2024/03/06 08:43:54;;;;;;;39.70;25.90;;;;;;;3.63;100.00;99902.71;449047;1238;139683;-66
2024/03/06 08:53:58;;;;;;;39.90;22.30;;;;;;;3.74;100.00;99908.95;448756;1238;139593;-72
2024/03/06 09:04:01;;;;;;;30.80;21.50;;;;;;;3.83;100.00;99918.54;449228;1235;140295;-66
2024/03/06 09:14:05;;;;;;;24.50;19.70;;;;;;;3.97;100.00;99922.13;449219;1236;139497;-58
2024/03/06 09:24:09;;;;;;;27.00;18.70;;;;;;;4.10;100.00;99925.70;448833;1236;138937;-60
2024/03/06 09:34:12;;;;;;;23.00;18.20;;;;;;;4.23;100.00;99919.20;448997;1238;139794;-61
2024/03/06 09:44:16;;;;;;;40.20;23.10;;;;;;;4.35;100.00;99914.67;448995;1236;138864;-61
2024/03/06 09:54:20;;;;;;;30.10;22.90;;;;;;;4.46;100.00;99924.52;448845;1236;138964;-66
2024/03/06 10:04:25;;;;;;;29.00;21.40;;;;;;;4.62;100.00;99923.29;448739;1238;139343;-65
2024/03/06 10:14:29;;;;;;;32.70;22.80;;;;;;;4.85;100.00;99928.27;449532;1235;138938;-58
2024/03/06 10:24:34;;;;;;;36.00;24.70;;;;;;;4.94;100.00;99933.14;450019;1235;139145;-59
2024/03/06 10:34:40;;;;;;;31.30;21.40;;;;;;;4.91;100.00;99941.56;449150;1238;138906;-61
2024/03/06 10:44:52;;;;;;;30.10;22.20;;;;;;;5.07;100.00;99942.38;448855;1234;139374;-64
2024/03/06 10:54:59;;;;;;;30.30;23.60;;;;;;;5.29;100.00;99948.72;448812;1236;139664;-58
2024/03/06 11:05:05;;;;;;;33.00;23.30;;;;;;;5.44;100.00;99956.71;448365;1238;138868;-64
2024/03/06 11:15:15;;;;;;;32.60;23.00;;;;;;;5.35;100.00;99951.45;449022;1238;139454;-61
2024/03/06 11:25:58;;;;;;;37.50;25.30;;;;;;;5.37;100.00;99951.58;448985;1237;138985;-65
2024/03/06 11:36:20;;;;;;;35.20;25.00;;;;;;;5.36;100.00;99958.55;448380;1238;139112;-65
2024/03/06 11:46:41;;;;;;;37.60;26.30;;;;;;;5.33;100.00;99958.48;448590;1238;138939;-62
2024/03/06 11:56:46;;;;;;;39.70;25.30;;;;;;;5.31;100.00;99965.16;449100;1238;138783;-65
2024/03/06 12:06:50;;;;;;;49.20;31.90;;;;;;;5.23;100.00;99980.73;449020;1238;139231;-64
2024/03/06 12:16:58;;;;;;;35.60;26.90;;;;;;;5.07;100.00;99985.09;449515;1236;139428;-65
2024/03/06 12:27:03;;;;;;;37.20;27.80;;;;;;;5.02;100.00;99981.11;449420;1237;138838;-68
2024/03/06 12:37:12;;;;;;;30.70;26.00;;;;;;;5.01;100.00;99983.73;449150;1237;139596;-60
2024/03/06 12:47:16;;;;;;;31.00;21.90;;;;;;;5.09;100.00;99986.58;449603;1237;140068;-59
2024/03/06 12:57:19;;;;;;;35.70;26.90;;;;;;;4.98;100.00;99986.42;448670;1238;139034;-62
2024/03/06 13:07:22;;;;;;;36.70;24.50;;;;;;;4.76;100.00;99990.29;448893;1235;138910;-59
2024/03/06 13:17:26;;;;;;;31.00;25.40;;;;;;;4.66;100.00;99991.51;448871;1235;139108;-58
2024/03/06 13:27:30;;;;;;;36.80;25.90;;;;;;;4.59;100.00;100002.13;448924;1238;139643;-58
2024/03/06 13:37:34;;;;;;;32.10;24.40;;;;;;;4.47;100.00;100002.67;448513;1238;139380;-59
2024/03/06 13:47:38;;;;;;;31.20;24.00;;;;;;;4.42;100.00;100002.30;448671;1238;139462;-62
2024/03/06 13:57:42;;;;;;;34.80;24.80;;;;;;;4.28;100.00;100009.70;448899;1236;139525;-57
2024/03/06 14:07:46;;;;;;;36.10;24.20;;;;;;;4.24;100.00;100010.16;448636;1237;139390;-65
2024/03/06 14:17:49;;;;;;;36.50;24.30;;;;;;;4.15;100.00;100023.44;448633;1237;139757;-59
2024/03/06 14:27:53;;;;;;;33.70;25.30;;;;;;;4.01;100.00;100034.22;448773;1238;139529;-72
2024/03/06 14:37:56;;;;;;;29.10;22.00;;;;;;;3.89;100.00;100041.52;448809;1237;139081;-69
2024/03/06 14:48:00;;;;;;;30.80;22.80;;;;;;;3.79;100.00;100040.77;449016;1236;140609;-54
2024/03/06 14:58:04;;;;;;;26.60;19.30;;;;;;;3.85;100.00;100046.66;448626;1238;140126;-59
2024/03/06 15:08:08;;;;;;;24.80;18.00;;;;;;;3.95;100.00;100046.71;448663;1238;140019;-58
2024/03/06 15:18:11;;;;;;;29.20;20.40;;;;;;;3.95;100.00;100050.72;449027;1237;139434;-57
2024/03/06 15:28:15;;;;;;;27.10;18.30;;;;;;;3.88;100.00;100055.39;448524;1236;139657;-54
2024/03/06 15:38:20;;;;;;;22.30;17.30;;;;;;;3.83;100.00;100064.22;448868;1235;138999;-65
2024/03/06 15:48:24;;;;;;;26.40;18.10;;;;;;;3.74;100.00;100067.40;448837;1237;141507;-57
2024/03/06 15:58:28;;;;;;;19.80;14.60;;;;;;;3.67;100.00;100077.98;449425;1238;140236;-51
2024/03/06 16:08:31;;;;;;;23.30;15.80;;;;;;;3.58;100.00;100087.22;449068;1237;138933;-52
2024/03/06 16:18:36;;;;;;;25.30;16.20;;;;;;;3.53;100.00;100085.64;448947;1237;139778;-64
2024/03/06 16:28:40;;;;;;;21.40;16.10;;;;;;;3.49;100.00;100095.59;449251;1238;139094;-63
2024/03/06 16:38:44;;;;;;;21.60;14.30;;;;;;;3.43;100.00;100102.48;448824;1235;139095;-65
2024/03/06 16:48:47;;;;;;;23.10;15.20;;;;;;;3.38;100.00;100111.11;449319;1238;139649;-70
2024/03/06 16:58:51;;;;;;;22.60;15.80;;;;;;;3.34;100.00;100125.94;448978;1238;139109;-67
2024/03/06 17:08:54;;;;;;;22.40;15.80;;;;;;;3.31;100.00;100129.29;448849;1238;138977;-67
2024/03/06 17:19:02;;;;;;;19.10;14.70;;;;;;;3.32;100.00;100138.96;448709;1238;139467;-73
2024/03/06 17:29:08;;;;;;;24.10;18.60;;;;;;;3.34;100.00;100144.98;448545;1235;139476;-80
2024/03/06 17:39:12;;;;;;;19.80;15.50;;;;;;;3.35;100.00;100151.00;452632;1235;139468;-56
2024/03/06 17:49:16;;;;;;;21.40;15.70;;;;;;;3.34;100.00;100160.55;449888;1238;138961;-56
2024/03/06 17:59:19;;;;;;;18.00;14.70;;;;;;;3.26;100.00;100168.17;448953;1239;139694;-57
2024/03/06 18:09:23;;;;;;;24.90;16.60;;;;;;;3.17;100.00;100173.08;449013;1239;140085;-65
2024/03/06 18:19:26;;;;;;;20.20;16.10;;;;;;;3.11;100.00;100185.16;448381;1239;139448;-53
2024/03/06 18:29:30;;;;;;;22.40;13.00;;;;;;;3.04;100.00;100190.67;448038;1238;139481;-55
2024/03/06 18:39:34;;;;;;;32.30;17.20;;;;;;;2.94;100.00;100195.91;447544;1239;5099942;-54
2024/03/06 18:49:37;;;;;;;19.00;13.10;;;;;;;2.82;100.00;100196.70;448953;1239;139791;-63
2024/03/06 18:59:41;;;;;;;17.50;12.30;;;;;;;2.74;100.00;100200.85;448275;1239;139642;-65
2024/03/06 19:09:44;;;;;;;18.60;12.90;;;;;;;2.70;100.00;100210.45;448525;1236;139919;-55
2024/03/06 19:19:48;;;;;;;16.90;11.30;;;;;;;2.66;100.00;100215.02;449329;1237;139530;-55
2024/03/06 19:29:52;;;;;;;21.20;14.00;;;;;;;2.59;100.00;100223.11;448546;1239;139589;-64
2024/03/06 19:39:55;;;;;;;17.60;11.20;;;;;;;2.53;100.00;100227.05;448320;1235;139539;-63
2024/03/06 19:49:59;;;;;;;11.20;8.90;;;;;;;2.43;100.00;100228.27;448236;1235;140046;-62
2024/03/06 20:00:10;;;;;;;13.40;8.90;;;;;;;2.36;100.00;100230.66;448021;1239;139418;-63
2024/03/06 20:10:13;;;;;;;12.20;9.50;;;;;;;2.30;100.00;100233.89;448115;1238;139404;-62
2024/03/06 20:20:17;;;;;;;14.50;9.70;;;;;;;2.28;100.00;100237.20;448618;1241;138821;-64
2024/03/06 20:30:21;;;;;;;16.80;9.90;;;;;;;2.24;100.00;100233.14;450379;1239;139345;-55
2024/03/06 20:40:27;;;;;;;15.10;10.20;;;;;;;2.18;100.00;100234.83;449940;1235;139097;-60
2024/03/06 20:50:30;;;;;;;12.30;10.20;;;;;;;2.12;100.00;100235.45;449848;1238;139150;-63
2024/03/06 21:00:34;;;;;;;15.90;10.80;;;;;;;2.06;100.00;100244.36;448579;1238;139206;-63
2024/03/06 21:10:38;;;;;;;15.00;10.70;;;;;;;2.03;100.00;100248.05;449120;1238;139643;-55
2024/03/06 21:20:42;;;;;;;13.60;10.40;;;;;;;1.98;100.00;100251.24;448573;1235;139389;-60
2024/03/06 21:30:47;;;;;;;13.90;10.80;;;;;;;1.94;100.00;100261.48;449523;1240;139828;-63
2024/03/06 21:40:53;;;;;;;19.30;13.20;;;;;;;1.92;100.00;100270.52;450540;1239;140083;-64
2024/03/06 21:50:56;;;;;;;18.40;12.50;;;;;;;1.89;100.00;100276.60;449587;1238;139005;-63
2024/03/06 22:01:00;;;;;;;14.60;11.70;;;;;;;1.85;100.00;100277.18;448515;1238;139301;-54
2024/03/06 22:11:04;;;;;;;16.80;12.60;;;;;;;1.83;100.00;100284.47;449279;1234;139576;-54
2024/03/06 22:21:07;;;;;;;19.40;12.80;;;;;;;1.83;100.00;100292.93;449352;1238;139533;-56
2024/03/06 22:31:10;;;;;;;18.80;12.10;;;;;;;1.79;100.00;100303.86;448116;1238;140642;-55
2024/03/06 22:41:18;;;;;;;19.70;14.20;;;;;;;1.75;100.00;100305.31;448536;1238;140503;-57
2024/03/06 22:51:22;;;;;;;23.40;15.20;;;;;;;1.71;100.00;100311.95;450412;1235;139800;-55
2024/03/06 23:01:25;;;;;;;26.50;15.50;;;;;;;1.66;100.00;100310.98;448718;1237;139583;-64
2024/03/06 23:11:28;;;;;;;19.20;14.30;;;;;;;1.61;100.00;100314.00;448570;1237;139827;-56
2024/03/06 23:21:35;;;;;;;19.80;13.10;;;;;;;1.54;100.00;100312.38;449154;1238;139001;-57
2024/03/06 23:31:39;;;;;;;17.50;11.80;;;;;;;1.48;100.00;100311.08;449775;1238;139478;-57
2024/03/06 23:41:42;;;;;;;21.10;15.40;;;;;;;1.44;100.00;100311.33;448270;1235;139745;-62
2024/03/06 23:51:46;;;;;;;17.60;13.90;;;;;;;1.38;100.00;100308.48;448443;1235;139654;-63
